sensor_id;sensor_type;location;lat;lon;timestamp;P1;durP1;ratioP1;P2;durP2;ratioP2
19889;SDS011;10107;51.198;6.824;2022-09-19T00:00:03;4.53;;;1.52;;
19889;SDS011;10107;51.198;6.824;2022-09-19T00:04:06;4.67;;;1.60;;
19889;SDS011;10107;51.198;6.824;2022-09-19T00:08:12;5.18;;;1.55;;
19889;SDS011;10107;51.198;6.824;2022-09-19T00:12:14;3.67;;;1.73;;
19889;SDS011;10107;51.198;6.824;2022-09-19T00:16:20;5.75;;;1.83;;
19889;SDS011;10107;51.198;6.824;2022-09-19T00:20:23;7.40;;;1.80;;
19889;SDS011;10107;51.198;6.824;2022-09-19T00:24:26;8.65;;;1.98;;
19889;SDS011;10107;51.198;6.824;2022-09-19T00:28:47;6.13;;;1.70;;
19889;SDS011;10107;51.198;6.824;2022-09-19T00:32:48;8.05;;;1.95;;
19889;SDS011;10107;51.198;6.824;2022-09-19T00:40:55;6.65;;;1.80;;
19889;SDS011;10107;51.198;6.824;2022-09-19T00:44:59;4.75;;;1.55;;
19889;SDS011;10107;51.198;6.824;2022-09-19T00:49:05;7.25;;;1.75;;
19889;SDS011;10107;51.198;6.824;2022-09-19T00:53:12;5.93;;;1.65;;
19889;SDS011;10107;51.198;6.824;2022-09-19T00:57:17;6.20;;;1.77;;
19889;SDS011;10107;51.198;6.824;2022-09-19T01:01:19;3.58;;;1.42;;
19889;SDS011;10107;51.198;6.824;2022-09-19T01:05:23;7.72;;;1.98;;
19889;SDS011;10107;51.198;6.824;2022-09-19T01:09:34;4.30;;;1.45;;
19889;SDS011;10107;51.198;6.824;2022-09-19T01:13:48;6.03;;;2.00;;
19889;SDS011;10107;51.198;6.824;2022-09-19T01:17:59;9.07;;;2.13;;
19889;SDS011;10107;51.198;6.824;2022-09-19T01:22:03;6.22;;;1.63;;
19889;SDS011;10107;51.198;6.824;2022-09-19T01:26:22;6.63;;;1.70;;
19889;SDS011;10107;51.198;6.824;2022-09-19T01:30:40;9.52;;;1.90;;
19889;SDS011;10107;51.198;6.824;2022-09-19T01:34:49;6.40;;;1.60;;
19889;SDS011;10107;51.198;6.824;2022-09-19T01:38:54;6.00;;;2.00;;
19889;SDS011;10107;51.198;6.824;2022-09-19T01:43:02;8.23;;;2.08;;
19889;SDS011;10107;51.198;6.824;2022-09-19T01:47:11;6.13;;;1.70;;
19889;SDS011;10107;51.198;6.824;2022-09-19T01:51:20;5.90;;;1.60;;
19889;SDS011;10107;51.198;6.824;2022-09-19T01:55:29;6.90;;;2.00;;
19889;SDS011;10107;51.198;6.824;2022-09-19T01:59:40;5.80;;;1.45;;
19889;SDS011;10107;51.198;6.824;2022-09-19T02:03:52;5.40;;;1.98;;
19889;SDS011;10107;51.198;6.824;2022-09-19T02:08:03;8.15;;;1.83;;
19889;SDS011;10107;51.198;6.824;2022-09-19T02:12:11;6.50;;;1.98;;
19889;SDS011;10107;51.198;6.824;2022-09-19T02:16:18;8.15;;;2.28;;
19889;SDS011;10107;51.198;6.824;2022-09-19T02:20:28;7.57;;;1.88;;
19889;SDS011;10107;51.198;6.824;2022-09-19T02:24:33;5.75;;;2.00;;
19889;SDS011;10107;51.198;6.824;2022-09-19T02:28:40;5.20;;;1.80;;
19889;SDS011;10107;51.198;6.824;2022-09-19T02:32:51;4.95;;;1.58;;
19889;SDS011;10107;51.198;6.824;2022-09-19T02:36:55;9.35;;;2.17;;
19889;SDS011;10107;51.198;6.824;2022-09-19T02:41:02;6.55;;;1.65;;
19889;SDS011;10107;51.198;6.824;2022-09-19T02:45:13;7.20;;;1.65;;
19889;SDS011;10107;51.198;6.824;2022-09-19T02:49:30;4.88;;;1.63;;
19889;SDS011;10107;51.198;6.824;2022-09-19T02:53:42;5.03;;;1.70;;
19889;SDS011;10107;51.198;6.824;2022-09-19T02:57:52;5.88;;;1.67;;
19889;SDS011;10107;51.198;6.824;2022-09-19T03:02:02;5.88;;;2.25;;
19889;SDS011;10107;51.198;6.824;2022-09-19T03:06:09;5.32;;;1.60;;
19889;SDS011;10107;51.198;6.824;2022-09-19T03:10:18;8.35;;;1.70;;
19889;SDS011;10107;51.198;6.824;2022-09-19T03:14:39;7.28;;;1.40;;
19889;SDS011;10107;51.198;6.824;2022-09-19T03:18:42;8.80;;;1.80;;
19889;SDS011;10107;51.198;6.824;2022-09-19T03:22:46;6.40;;;1.90;;
19889;SDS011;10107;51.198;6.824;2022-09-19T03:26:51;5.65;;;1.73;;
19889;SDS011;10107;51.198;6.824;2022-09-19T03:30:55;8.18;;;1.90;;
19889;SDS011;10107;51.198;6.824;2022-09-19T03:35:01;6.15;;;1.75;;
19889;SDS011;10107;51.198;6.824;2022-09-19T03:39:04;5.05;;;1.15;;
19889;SDS011;10107;51.198;6.824;2022-09-19T03:43:14;5.90;;;1.52;;
19889;SDS011;10107;51.198;6.824;2022-09-19T03:47:17;6.45;;;1.30;;
19889;SDS011;10107;51.198;6.824;2022-09-19T03:51:21;8.20;;;1.88;;
19889;SDS011;10107;51.198;6.824;2022-09-19T03:55:25;4.90;;;1.60;;
19889;SDS011;10107;51.198;6.824;2022-09-19T03:59:30;4.65;;;1.20;;
19889;SDS011;10107;51.198;6.824;2022-09-19T04:03:33;7.70;;;1.63;;
19889;SDS011;10107;51.198;6.824;2022-09-19T04:07:34;5.20;;;1.60;;
19889;SDS011;10107;51.198;6.824;2022-09-19T04:11:39;4.85;;;1.33;;
19889;SDS011;10107;51.198;6.824;2022-09-19T04:15:43;6.90;;;1.70;;
19889;SDS011;10107;51.198;6.824;2022-09-19T04:19:47;8.95;;;1.80;;
19889;SDS011;10107;51.198;6.824;2022-09-19T04:24:14;9.88;;;1.88;;
19889;SDS011;10107;51.198;6.824;2022-09-19T04:28:34;7.38;;;1.60;;
19889;SDS011;10107;51.198;6.824;2022-09-19T04:32:40;6.10;;;1.70;;
19889;SDS011;10107;51.198;6.824;2022-09-19T04:36:43;6.07;;;1.50;;
19889;SDS011;10107;51.198;6.824;2022-09-19T04:40:45;7.15;;;1.75;;
19889;SDS011;10107;51.198;6.824;2022-09-19T04:49:06;7.50;;;2.20;;
19889;SDS011;10107;51.198;6.824;2022-09-19T04:53:15;10.65;;;1.73;;
19889;SDS011;10107;51.198;6.824;2022-09-19T04:57:20;5.57;;;2.08;;
19889;SDS011;10107;51.198;6.824;2022-09-19T05:01:21;7.95;;;1.70;;
19889;SDS011;10107;51.198;6.824;2022-09-19T05:05:26;8.23;;;1.90;;
19889;SDS011;10107;51.198;6.824;2022-09-19T05:09:28;3.53;;;1.58;;
19889;SDS011;10107;51.198;6.824;2022-09-19T05:13:36;8.85;;;1.55;;
19889;SDS011;10107;51.198;6.824;2022-09-19T05:17:44;4.47;;;1.63;;
19889;SDS011;10107;51.198;6.824;2022-09-19T05:21:51;6.18;;;1.55;;
19889;SDS011;10107;51.198;6.824;2022-09-19T05:25:53;6.38;;;1.50;;
19889;SDS011;10107;51.198;6.824;2022-09-19T05:29:54;9.57;;;1.77;;
19889;SDS011;10107;51.198;6.824;2022-09-19T05:33:59;4.45;;;1.42;;
19889;SDS011;10107;51.198;6.824;2022-09-19T05:38:02;2.83;;;1.20;;
19889;SDS011;10107;51.198;6.824;2022-09-19T05:42:27;2.70;;;1.13;;
19889;SDS011;10107;51.198;6.824;2022-09-19T05:46:28;4.47;;;1.50;;
19889;SDS011;10107;51.198;6.824;2022-09-19T05:50:30;4.38;;;1.40;;
19889;SDS011;10107;51.198;6.824;2022-09-19T05:54:34;7.43;;;1.55;;
19889;SDS011;10107;51.198;6.824;2022-09-19T05:59:14;5.85;;;1.65;;
19889;SDS011;10107;51.198;6.824;2022-09-19T06:03:17;6.03;;;1.80;;
19889;SDS011;10107;51.198;6.824;2022-09-19T06:07:21;6.38;;;1.65;;
19889;SDS011;10107;51.198;6.824;2022-09-19T06:11:25;5.07;;;1.40;;
19889;SDS011;10107;51.198;6.824;2022-09-19T06:15:28;6.68;;;1.70;;
19889;SDS011;10107;51.198;6.824;2022-09-19T06:19:30;4.55;;;1.38;;
19889;SDS011;10107;51.198;6.824;2022-09-19T06:23:39;3.50;;;1.52;;
19889;SDS011;10107;51.198;6.824;2022-09-19T06:27:44;5.35;;;1.55;;
19889;SDS011;10107;51.198;6.824;2022-09-19T06:31:53;4.45;;;1.50;;
19889;SDS011;10107;51.198;6.824;2022-09-19T06:36:00;4.35;;;1.60;;
19889;SDS011;10107;51.198;6.824;2022-09-19T06:40:05;5.18;;;1.60;;
19889;SDS011;10107;51.198;6.824;2022-09-19T06:44:18;7.13;;;2.33;;
19889;SDS011;10107;51.198;6.824;2022-09-19T06:48:39;5.93;;;1.95;;
19889;SDS011;10107;51.198;6.824;2022-09-19T06:52:59;7.82;;;2.13;;
19889;SDS011;10107;51.198;6.824;2022-09-19T06:57:01;4.60;;;1.20;;
19889;SDS011;10107;51.198;6.824;2022-09-19T07:01:05;3.17;;;1.38;;
19889;SDS011;10107;51.198;6.824;2022-09-19T07:05:08;4.63;;;1.58;;
19889;SDS011;10107;51.198;6.824;2022-09-19T07:09:20;4.32;;;1.50;;
19889;SDS011;10107;51.198;6.824;2022-09-19T07:13:22;5.32;;;1.50;;
19889;SDS011;10107;51.198;6.824;2022-09-19T07:17:32;4.63;;;1.40;;
19889;SDS011;10107;51.198;6.824;2022-09-19T07:21:34;6.20;;;1.77;;
19889;SDS011;10107;51.198;6.824;2022-09-19T07:25:40;3.58;;;1.20;;
19889;SDS011;10107;51.198;6.824;2022-09-19T07:29:43;6.68;;;1.40;;
19889;SDS011;10107;51.198;6.824;2022-09-19T07:33:46;4.32;;;1.20;;
19889;SDS011;10107;51.198;6.824;2022-09-19T07:37:49;4.78;;;1.33;;
19889;SDS011;10107;51.198;6.824;2022-09-19T07:42:09;3.35;;;1.33;;
19889;SDS011;10107;51.198;6.824;2022-09-19T07:46:31;3.53;;;1.27;;
19889;SDS011;10107;51.198;6.824;2022-09-19T07:51:01;4.55;;;1.50;;
19889;SDS011;10107;51.198;6.824;2022-09-19T07:55:09;4.95;;;1.48;;
19889;SDS011;10107;51.198;6.824;2022-09-19T07:59:12;4.85;;;1.35;;
19889;SDS011;10107;51.198;6.824;2022-09-19T08:03:34;2.92;;;1.05;;
19889;SDS011;10107;51.198;6.824;2022-09-19T08:07:37;4.97;;;1.35;;
19889;SDS011;10107;51.198;6.824;2022-09-19T08:11:40;5.68;;;1.30;;
19889;SDS011;10107;51.198;6.824;2022-09-19T08:15:42;8.93;;;1.52;;
19889;SDS011;10107;51.198;6.824;2022-09-19T08:19:46;5.03;;;1.58;;
19889;SDS011;10107;51.198;6.824;2022-09-19T08:23:49;3.53;;;1.17;;
19889;SDS011;10107;51.198;6.824;2022-09-19T08:27:51;4.67;;;1.40;;
19889;SDS011;10107;51.198;6.824;2022-09-19T08:31:53;3.72;;;1.55;;
19889;SDS011;10107;51.198;6.824;2022-09-19T08:35:57;5.10;;;1.17;;
19889;SDS011;10107;51.198;6.824;2022-09-19T08:40:06;6.70;;;1.50;;
19889;SDS011;10107;51.198;6.824;2022-09-19T08:44:20;6.15;;;1.75;;
19889;SDS011;10107;51.198;6.824;2022-09-19T08:48:28;8.27;;;1.70;;
19889;SDS011;10107;51.198;6.824;2022-09-19T08:52:40;5.78;;;1.80;;
19889;SDS011;10107;51.198;6.824;2022-09-19T08:56:50;5.75;;;1.77;;
19889;SDS011;10107;51.198;6.824;2022-09-19T09:00:53;6.80;;;1.42;;
19889;SDS011;10107;51.198;6.824;2022-09-19T09:04:59;5.10;;;1.83;;
19889;SDS011;10107;51.198;6.824;2022-09-19T09:09:02;5.13;;;1.23;;
19889;SDS011;10107;51.198;6.824;2022-09-19T09:13:21;6.93;;;1.42;;
19889;SDS011;10107;51.198;6.824;2022-09-19T09:17:35;7.90;;;1.95;;
19889;SDS011;10107;51.198;6.824;2022-09-19T09:21:48;4.82;;;1.63;;
19889;SDS011;10107;51.198;6.824;2022-09-19T09:26:05;4.95;;;1.30;;
19889;SDS011;10107;51.198;6.824;2022-09-19T09:30:17;5.00;;;1.40;;
19889;SDS011;10107;51.198;6.824;2022-09-19T09:34:33;5.47;;;1.67;;
19889;SDS011;10107;51.198;6.824;2022-09-19T09:38:41;9.07;;;2.33;;
19889;SDS011;10107;51.198;6.824;2022-09-19T09:42:57;7.72;;;1.48;;
19889;SDS011;10107;51.198;6.824;2022-09-19T09:47:12;4.53;;;1.70;;
19889;SDS011;10107;51.198;6.824;2022-09-19T09:51:28;5.35;;;1.33;;
19889;SDS011;10107;51.198;6.824;2022-09-19T09:55:42;6.68;;;1.38;;
19889;SDS011;10107;51.198;6.824;2022-09-19T10:00:11;4.28;;;1.25;;
19889;SDS011;10107;51.198;6.824;2022-09-19T10:04:36;4.85;;;1.30;;
19889;SDS011;10107;51.198;6.824;2022-09-19T10:08:46;4.25;;;1.40;;
19889;SDS011;10107;51.198;6.824;2022-09-19T10:13:02;4.80;;;1.50;;
19889;SDS011;10107;51.198;6.824;2022-09-19T10:17:10;3.72;;;1.02;;
19889;SDS011;10107;51.198;6.824;2022-09-19T10:21:18;5.13;;;1.52;;
19889;SDS011;10107;51.198;6.824;2022-09-19T10:25:25;5.88;;;1.50;;
19889;SDS011;10107;51.198;6.824;2022-09-19T10:29:28;4.80;;;1.13;;
19889;SDS011;10107;51.198;6.824;2022-09-19T10:33:40;5.93;;;1.50;;
19889;SDS011;10107;51.198;6.824;2022-09-19T10:37:52;5.40;;;1.20;;
19889;SDS011;10107;51.198;6.824;2022-09-19T10:41:55;3.03;;;1.23;;
19889;SDS011;10107;51.198;6.824;2022-09-19T10:45:57;3.13;;;1.00;;
19889;SDS011;10107;51.198;6.824;2022-09-19T10:50:11;4.55;;;1.55;;
19889;SDS011;10107;51.198;6.824;2022-09-19T10:54:29;3.40;;;1.00;;
19889;SDS011;10107;51.198;6.824;2022-09-19T10:58:35;4.38;;;1.30;;
19889;SDS011;10107;51.198;6.824;2022-09-19T11:03:03;3.83;;;1.40;;
19889;SDS011;10107;51.198;6.824;2022-09-19T11:07:12;2.80;;;1.30;;
19889;SDS011;10107;51.198;6.824;2022-09-19T11:11:26;4.05;;;1.20;;
19889;SDS011;10107;51.198;6.824;2022-09-19T11:15:41;1.80;;;0.55;;
19889;SDS011;10107;51.198;6.824;2022-09-19T11:20:00;2.25;;;0.60;;
19889;SDS011;10107;51.198;6.824;2022-09-19T11:24:33;1.25;;;0.43;;
19889;SDS011;10107;51.198;6.824;2022-09-19T11:28:54;1.27;;;0.75;;
19889;SDS011;10107;51.198;6.824;2022-09-19T11:33:13;1.05;;;0.60;;
19889;SDS011;10107;51.198;6.824;2022-09-19T11:38:01;1.63;;;1.00;;
19889;SDS011;10107;51.198;6.824;2022-09-19T11:42:13;2.38;;;0.93;;
19889;SDS011;10107;51.198;6.824;2022-09-19T11:46:27;1.17;;;0.75;;
19889;SDS011;10107;51.198;6.824;2022-09-19T11:50:42;3.90;;;1.60;;
19889;SDS011;10107;51.198;6.824;2022-09-19T11:55:08;2.53;;;1.63;;
19889;SDS011;10107;51.198;6.824;2022-09-19T11:59:21;3.78;;;1.50;;
19889;SDS011;10107;51.198;6.824;2022-09-19T12:03:50;4.50;;;1.27;;
19889;SDS011;10107;51.198;6.824;2022-09-19T12:08:15;2.67;;;0.90;;
19889;SDS011;10107;51.198;6.824;2022-09-19T12:12:28;1.98;;;0.80;;
19889;SDS011;10107;51.198;6.824;2022-09-19T12:16:49;1.02;;;0.70;;
19889;SDS011;10107;51.198;6.824;2022-09-19T12:20:58;1.88;;;0.63;;
19889;SDS011;10107;51.198;6.824;2022-09-19T12:25:07;1.55;;;1.05;;
19889;SDS011;10107;51.198;6.824;2022-09-19T12:29:20;1.77;;;0.60;;
19889;SDS011;10107;51.198;6.824;2022-09-19T12:33:28;1.02;;;0.65;;
19889;SDS011;10107;51.198;6.824;2022-09-19T12:37:38;2.08;;;0.70;;
19889;SDS011;10107;51.198;6.824;2022-09-19T12:41:49;1.88;;;0.75;;
19889;SDS011;10107;51.198;6.824;2022-09-19T12:45:59;2.28;;;0.82;;
19889;SDS011;10107;51.198;6.824;2022-09-19T12:50:13;1.02;;;0.60;;
19889;SDS011;10107;51.198;6.824;2022-09-19T12:54:24;2.17;;;0.80;;
19889;SDS011;10107;51.198;6.824;2022-09-19T12:58:32;2.67;;;0.85;;
19889;SDS011;10107;51.198;6.824;2022-09-19T13:02:44;2.63;;;0.88;;
19889;SDS011;10107;51.198;6.824;2022-09-19T13:06:49;2.78;;;0.90;;
19889;SDS011;10107;51.198;6.824;2022-09-19T13:10:58;2.17;;;1.05;;
19889;SDS011;10107;51.198;6.824;2022-09-19T13:15:14;3.72;;;2.30;;
19889;SDS011;10107;51.198;6.824;2022-09-19T13:19:23;2.85;;;1.42;;
19889;SDS011;10107;51.198;6.824;2022-09-19T13:23:44;2.67;;;1.08;;
19889;SDS011;10107;51.198;6.824;2022-09-19T13:28:22;1.88;;;0.80;;
19889;SDS011;10107;51.198;6.824;2022-09-19T13:36:55;2.60;;;1.10;;
19889;SDS011;10107;51.198;6.824;2022-09-19T13:45:07;4.13;;;1.80;;
19889;SDS011;10107;51.198;6.824;2022-09-19T13:49:21;7.32;;;1.50;;
19889;SDS011;10107;51.198;6.824;2022-09-19T13:53:31;5.80;;;1.48;;
19889;SDS011;10107;51.198;6.824;2022-09-19T13:57:40;3.67;;;1.05;;
19889;SDS011;10107;51.198;6.824;2022-09-19T14:01:55;3.10;;;1.10;;
19889;SDS011;10107;51.198;6.824;2022-09-19T14:06:16;2.83;;;1.08;;
19889;SDS011;10107;51.198;6.824;2022-09-19T14:10:22;2.95;;;1.30;;
19889;SDS011;10107;51.198;6.824;2022-09-19T14:18:56;3.25;;;0.82;;
19889;SDS011;10107;51.198;6.824;2022-09-19T14:23:00;3.35;;;1.00;;
19889;SDS011;10107;51.198;6.824;2022-09-19T14:27:05;2.30;;;0.90;;
19889;SDS011;10107;51.198;6.824;2022-09-19T14:31:28;2.83;;;0.82;;
19889;SDS011;10107;51.198;6.824;2022-09-19T14:35:43;2.85;;;1.00;;
19889;SDS011;10107;51.198;6.824;2022-09-19T14:44:34;2.35;;;1.25;;
19889;SDS011;10107;51.198;6.824;2022-09-19T14:48:58;3.60;;;1.30;;
19889;SDS011;10107;51.198;6.824;2022-09-19T14:53:12;1.90;;;0.90;;
19889;SDS011;10107;51.198;6.824;2022-09-19T14:57:19;2.83;;;0.80;;
19889;SDS011;10107;51.198;6.824;2022-09-19T15:05:28;3.65;;;1.00;;
19889;SDS011;10107;51.198;6.824;2022-09-19T15:09:34;2.70;;;0.88;;
19889;SDS011;10107;51.198;6.824;2022-09-19T15:13:44;2.17;;;0.80;;
19889;SDS011;10107;51.198;6.824;2022-09-19T15:17:46;2.67;;;0.90;;
19889;SDS011;10107;51.198;6.824;2022-09-19T15:21:48;2.50;;;0.80;;
19889;SDS011;10107;51.198;6.824;2022-09-19T15:25:54;1.35;;;0.75;;
19889;SDS011;10107;51.198;6.824;2022-09-19T15:30:06;3.67;;;1.02;;
19889;SDS011;10107;51.198;6.824;2022-09-19T15:34:15;2.07;;;0.90;;
19889;SDS011;10107;51.198;6.824;2022-09-19T15:38:21;2.20;;;0.90;;
19889;SDS011;10107;51.198;6.824;2022-09-19T15:42:30;3.03;;;1.10;;
19889;SDS011;10107;51.198;6.824;2022-09-19T15:46:40;1.88;;;0.80;;
19889;SDS011;10107;51.198;6.824;2022-09-19T15:50:46;2.80;;;1.10;;
19889;SDS011;10107;51.198;6.824;2022-09-19T15:54:50;2.50;;;1.20;;
19889;SDS011;10107;51.198;6.824;2022-09-19T15:58:55;1.80;;;1.10;;
19889;SDS011;10107;51.198;6.824;2022-09-19T16:03:00;2.90;;;0.90;;
19889;SDS011;10107;51.198;6.824;2022-09-19T16:07:11;3.33;;;1.05;;
19889;SDS011;10107;51.198;6.824;2022-09-19T16:11:43;4.43;;;0.80;;
19889;SDS011;10107;51.198;6.824;2022-09-19T16:15:48;2.38;;;1.08;;
19889;SDS011;10107;51.198;6.824;2022-09-19T16:19:50;1.35;;;0.77;;
19889;SDS011;10107;51.198;6.824;2022-09-19T16:23:54;3.78;;;1.35;;
19889;SDS011;10107;51.198;6.824;2022-09-19T16:27:55;4.10;;;1.40;;
19889;SDS011;10107;51.198;6.824;2022-09-19T16:31:59;2.83;;;1.08;;
19889;SDS011;10107;51.198;6.824;2022-09-19T16:36:05;1.58;;;0.90;;
19889;SDS011;10107;51.198;6.824;2022-09-19T16:40:19;4.28;;;1.10;;
19889;SDS011;10107;51.198;6.824;2022-09-19T16:44:36;1.75;;;0.75;;
19889;SDS011;10107;51.198;6.824;2022-09-19T16:48:41;1.67;;;0.85;;
19889;SDS011;10107;51.198;6.824;2022-09-19T16:52:43;3.13;;;1.47;;
19889;SDS011;10107;51.198;6.824;2022-09-19T16:56:49;1.27;;;0.80;;
19889;SDS011;10107;51.198;6.824;2022-09-19T17:00:51;2.10;;;0.90;;
19889;SDS011;10107;51.198;6.824;2022-09-19T17:04:55;1.02;;;0.70;;
19889;SDS011;10107;51.198;6.824;2022-09-19T17:09:00;3.00;;;1.05;;
19889;SDS011;10107;51.198;6.824;2022-09-19T17:13:02;2.08;;;1.05;;
19889;SDS011;10107;51.198;6.824;2022-09-19T17:17:03;2.00;;;0.70;;
19889;SDS011;10107;51.198;6.824;2022-09-19T17:21:08;2.40;;;1.05;;
19889;SDS011;10107;51.198;6.824;2022-09-19T17:25:14;1.35;;;0.95;;
19889;SDS011;10107;51.198;6.824;2022-09-19T17:29:21;2.65;;;1.10;;
19889;SDS011;10107;51.198;6.824;2022-09-19T17:33:23;2.38;;;0.82;;
19889;SDS011;10107;51.198;6.824;2022-09-19T17:41:30;2.60;;;0.90;;
19889;SDS011;10107;51.198;6.824;2022-09-19T17:45:34;2.72;;;1.10;;
19889;SDS011;10107;51.198;6.824;2022-09-19T17:49:36;2.97;;;1.02;;
19889;SDS011;10107;51.198;6.824;2022-09-19T17:53:40;3.53;;;1.00;;
19889;SDS011;10107;51.198;6.824;2022-09-19T17:57:42;2.88;;;0.88;;
19889;SDS011;10107;51.198;6.824;2022-09-19T18:01:44;2.47;;;1.20;;
19889;SDS011;10107;51.198;6.824;2022-09-19T18:06:03;2.40;;;1.20;;
19889;SDS011;10107;51.198;6.824;2022-09-19T18:10:07;3.72;;;1.15;;
19889;SDS011;10107;51.198;6.824;2022-09-19T18:14:10;2.15;;;0.90;;
19889;SDS011;10107;51.198;6.824;2022-09-19T18:18:13;2.07;;;0.80;;
19889;SDS011;10107;51.198;6.824;2022-09-19T18:22:15;1.70;;;0.90;;
19889;SDS011;10107;51.198;6.824;2022-09-19T18:26:19;2.58;;;1.23;;
19889;SDS011;10107;51.198;6.824;2022-09-19T18:30:21;1.23;;;1.10;;
19889;SDS011;10107;51.198;6.824;2022-09-19T18:34:23;2.33;;;1.00;;
19889;SDS011;10107;51.198;6.824;2022-09-19T18:38:25;3.35;;;1.30;;
19889;SDS011;10107;51.198;6.824;2022-09-19T18:42:28;2.58;;;1.27;;
19889;SDS011;10107;51.198;6.824;2022-09-19T18:46:30;5.55;;;1.15;;
19889;SDS011;10107;51.198;6.824;2022-09-19T18:50:33;2.30;;;0.90;;
19889;SDS011;10107;51.198;6.824;2022-09-19T18:54:34;3.38;;;1.00;;
19889;SDS011;10107;51.198;6.824;2022-09-19T18:58:39;2.53;;;1.03;;
19889;SDS011;10107;51.198;6.824;2022-09-19T19:02:41;3.57;;;1.10;;
19889;SDS011;10107;51.198;6.824;2022-09-19T19:06:42;6.57;;;1.35;;
19889;SDS011;10107;51.198;6.824;2022-09-19T19:10:44;3.67;;;1.17;;
19889;SDS011;10107;51.198;6.824;2022-09-19T19:14:48;3.83;;;1.33;;
19889;SDS011;10107;51.198;6.824;2022-09-19T19:18:53;3.00;;;1.42;;
19889;SDS011;10107;51.198;6.824;2022-09-19T19:22:56;3.55;;;1.20;;
19889;SDS011;10107;51.198;6.824;2022-09-19T19:26:58;4.50;;;1.60;;
19889;SDS011;10107;51.198;6.824;2022-09-19T19:31:02;3.10;;;1.40;;
19889;SDS011;10107;51.198;6.824;2022-09-19T19:35:06;4.85;;;1.65;;
19889;SDS011;10107;51.198;6.824;2022-09-19T19:39:08;6.80;;;1.60;;
19889;SDS011;10107;51.198;6.824;2022-09-19T19:43:09;2.97;;;1.45;;
19889;SDS011;10107;51.198;6.824;2022-09-19T19:47:13;4.45;;;1.60;;
19889;SDS011;10107;51.198;6.824;2022-09-19T19:51:16;2.95;;;1.40;;
19889;SDS011;10107;51.198;6.824;2022-09-19T19:55:20;3.53;;;1.55;;
19889;SDS011;10107;51.198;6.824;2022-09-19T19:59:21;5.22;;;1.45;;
19889;SDS011;10107;51.198;6.824;2022-09-19T20:03:27;3.90;;;1.48;;
19889;SDS011;10107;51.198;6.824;2022-09-19T20:07:30;4.32;;;1.50;;
19889;SDS011;10107;51.198;6.824;2022-09-19T20:11:31;4.10;;;1.55;;
19889;SDS011;10107;51.198;6.824;2022-09-19T20:15:35;4.50;;;1.85;;
19889;SDS011;10107;51.198;6.824;2022-09-19T20:19:38;3.97;;;1.67;;
19889;SDS011;10107;51.198;6.824;2022-09-19T20:23:42;4.30;;;1.42;;
19889;SDS011;10107;51.198;6.824;2022-09-19T20:27:45;5.40;;;1.83;;
19889;SDS011;10107;51.198;6.824;2022-09-19T20:31:48;4.95;;;1.60;;
19889;SDS011;10107;51.198;6.824;2022-09-19T20:35:55;5.15;;;1.60;;
19889;SDS011;10107;51.198;6.824;2022-09-19T20:39:59;5.43;;;1.60;;
19889;SDS011;10107;51.198;6.824;2022-09-19T20:44:01;5.13;;;1.88;;
19889;SDS011;10107;51.198;6.824;2022-09-19T20:48:05;4.40;;;1.52;;
19889;SDS011;10107;51.198;6.824;2022-09-19T20:52:09;4.45;;;1.30;;
19889;SDS011;10107;51.198;6.824;2022-09-19T20:56:11;5.47;;;1.55;;
19889;SDS011;10107;51.198;6.824;2022-09-19T21:00:15;6.07;;;1.60;;
19889;SDS011;10107;51.198;6.824;2022-09-19T21:04:17;4.05;;;1.48;;
19889;SDS011;10107;51.198;6.824;2022-09-19T21:08:21;3.78;;;1.58;;
19889;SDS011;10107;51.198;6.824;2022-09-19T21:12:24;4.10;;;1.45;;
19889;SDS011;10107;51.198;6.824;2022-09-19T21:16:27;3.88;;;1.40;;
19889;SDS011;10107;51.198;6.824;2022-09-19T21:20:30;4.00;;;1.77;;
19889;SDS011;10107;51.198;6.824;2022-09-19T21:24:33;3.95;;;1.20;;
19889;SDS011;10107;51.198;6.824;2022-09-19T21:28:35;4.10;;;1.20;;
19889;SDS011;10107;51.198;6.824;2022-09-19T21:32:38;4.95;;;1.65;;
19889;SDS011;10107;51.198;6.824;2022-09-19T21:36:40;4.50;;;1.30;;
19889;SDS011;10107;51.198;6.824;2022-09-19T21:40:43;3.72;;;1.10;;
19889;SDS011;10107;51.198;6.824;2022-09-19T21:44:45;3.95;;;1.75;;
19889;SDS011;10107;51.198;6.824;2022-09-19T21:48:47;2.95;;;1.50;;
19889;SDS011;10107;51.198;6.824;2022-09-19T21:52:49;4.20;;;1.10;;
19889;SDS011;10107;51.198;6.824;2022-09-19T21:56:53;3.97;;;1.40;;
19889;SDS011;10107;51.198;6.824;2022-09-19T22:00:55;3.20;;;1.37;;
19889;SDS011;10107;51.198;6.824;2022-09-19T22:04:58;3.43;;;1.20;;
19889;SDS011;10107;51.198;6.824;2022-09-19T22:09:00;3.17;;;1.17;;
19889;SDS011;10107;51.198;6.824;2022-09-19T22:13:04;3.47;;;1.08;;
19889;SDS011;10107;51.198;6.824;2022-09-19T22:17:06;4.38;;;1.63;;
19889;SDS011;10107;51.198;6.824;2022-09-19T22:21:08;4.15;;;1.48;;
19889;SDS011;10107;51.198;6.824;2022-09-19T22:25:11;3.87;;;1.60;;
19889;SDS011;10107;51.198;6.824;2022-09-19T22:29:15;3.13;;;1.55;;
19889;SDS011;10107;51.198;6.824;2022-09-19T22:33:17;3.33;;;1.50;;
19889;SDS011;10107;51.198;6.824;2022-09-19T22:37:19;4.25;;;1.52;;
19889;SDS011;10107;51.198;6.824;2022-09-19T22:41:21;4.53;;;1.70;;
19889;SDS011;10107;51.198;6.824;2022-09-19T22:45:24;7.32;;;1.88;;
19889;SDS011;10107;51.198;6.824;2022-09-19T22:49:26;4.15;;;2.05;;
19889;SDS011;10107;51.198;6.824;2022-09-19T22:53:30;4.47;;;1.60;;
19889;SDS011;10107;51.198;6.824;2022-09-19T22:57:33;3.33;;;1.50;;
19889;SDS011;10107;51.198;6.824;2022-09-19T23:01:36;5.10;;;1.77;;
19889;SDS011;10107;51.198;6.824;2022-09-19T23:05:38;5.07;;;1.58;;
19889;SDS011;10107;51.198;6.824;2022-09-19T23:09:41;2.20;;;1.17;;
19889;SDS011;10107;51.198;6.824;2022-09-19T23:13:43;5.93;;;2.10;;
19889;SDS011;10107;51.198;6.824;2022-09-19T23:17:50;3.35;;;1.88;;
19889;SDS011;10107;51.198;6.824;2022-09-19T23:21:53;5.43;;;2.42;;
19889;SDS011;10107;51.198;6.824;2022-09-19T23:25:56;3.35;;;2.13;;
19889;SDS011;10107;51.198;6.824;2022-09-19T23:30:01;5.45;;;1.95;;
19889;SDS011;10107;51.198;6.824;2022-09-19T23:34:04;3.97;;;2.20;;
19889;SDS011;10107;51.198;6.824;2022-09-19T23:38:06;3.60;;;1.90;;
19889;SDS011;10107;51.198;6.824;2022-09-19T23:42:08;4.00;;;2.03;;
19889;SDS011;10107;51.198;6.824;2022-09-19T23:46:10;3.38;;;2.00;;
19889;SDS011;10107;51.198;6.824;2022-09-19T23:50:13;3.25;;;1.70;;
19889;SDS011;10107;51.198;6.824;2022-09-19T23:54:16;4.40;;;2.13;;
19889;SDS011;10107;51.198;6.824;2022-09-19T23:58:20;6.05;;;2.40;;
